sensor_id;sensor_type;location;lat;lon;timestamp;temperature;humidity
4695;DHT22;2361;49.540;8.390;2022-09-25T00:01:09;14.60;99.90
4695;DHT22;2361;49.540;8.390;2022-09-25T00:03:37;14.60;99.90
4695;DHT22;2361;49.540;8.390;2022-09-25T00:06:19;14.60;99.90
4695;DHT22;2361;49.540;8.390;2022-09-25T00:08:48;14.60;99.90
4695;DHT22;2361;49.540;8.390;2022-09-25T00:11:17;14.50;99.90
4695;DHT22;2361;49.540;8.390;2022-09-25T00:13:46;14.50;99.90
4695;DHT22;2361;49.540;8.390;2022-09-25T00:16:17;14.50;99.90
4695;DHT22;2361;49.540;8.390;2022-09-25T00:18:49;14.50;99.90
4695;DHT22;2361;49.540;8.390;2022-09-25T00:21:35;14.50;99.90
4695;DHT22;2361;49.540;8.390;2022-09-25T00:24:06;14.50;99.90
4695;DHT22;2361;49.540;8.390;2022-09-25T00:26:37;14.50;99.90
4695;DHT22;2361;49.540;8.390;2022-09-25T00:29:07;14.50;99.90
4695;DHT22;2361;49.540;8.390;2022-09-25T00:31:36;14.50;99.90
4695;DHT22;2361;49.540;8.390;2022-09-25T00:34:04;14.50;99.90
4695;DHT22;2361;49.540;8.390;2022-09-25T00:36:31;14.50;99.90
4695;DHT22;2361;49.540;8.390;2022-09-25T00:38:59;14.50;99.90
4695;DHT22;2361;49.540;8.390;2022-09-25T00:41:28;14.50;99.90
4695;DHT22;2361;49.540;8.390;2022-09-25T00:43:58;14.50;99.90
4695;DHT22;2361;49.540;8.390;2022-09-25T00:46:37;14.50;99.90
4695;DHT22;2361;49.540;8.390;2022-09-25T00:49:16;14.50;99.90
4695;DHT22;2361;49.540;8.390;2022-09-25T00:51:49;14.50;99.90
4695;DHT22;2361;49.540;8.390;2022-09-25T00:54:29;14.40;99.90
4695;DHT22;2361;49.540;8.390;2022-09-25T00:57:04;14.40;99.90
4695;DHT22;2361;49.540;8.390;2022-09-25T00:59:37;14.40;99.90
4695;DHT22;2361;49.540;8.390;2022-09-25T01:02:08;14.30;99.90
4695;DHT22;2361;49.540;8.390;2022-09-25T01:04:41;14.40;99.90
4695;DHT22;2361;49.540;8.390;2022-09-25T01:07:12;14.30;99.90
4695;DHT22;2361;49.540;8.390;2022-09-25T01:09:40;14.30;99.90
4695;DHT22;2361;49.540;8.390;2022-09-25T01:12:07;14.30;99.90
4695;DHT22;2361;49.540;8.390;2022-09-25T01:14:35;14.30;99.90
4695;DHT22;2361;49.540;8.390;2022-09-25T01:17:27;14.30;99.90
4695;DHT22;2361;49.540;8.390;2022-09-25T01:32:21;14.30;99.90
4695;DHT22;2361;49.540;8.390;2022-09-25T01:35:14;14.30;99.90
4695;DHT22;2361;49.540;8.390;2022-09-25T01:43:34;14.30;99.90
4695;DHT22;2361;49.540;8.390;2022-09-25T01:46:18;14.30;99.90
4695;DHT22;2361;49.540;8.390;2022-09-25T01:48:52;14.30;99.90
4695;DHT22;2361;49.540;8.390;2022-09-25T01:51:28;14.30;99.90
4695;DHT22;2361;49.540;8.390;2022-09-25T01:54:10;14.30;99.90
4695;DHT22;2361;49.540;8.390;2022-09-25T01:56:53;14.30;99.90
4695;DHT22;2361;49.540;8.390;2022-09-25T02:02:06;14.40;99.90
4695;DHT22;2361;49.540;8.390;2022-09-25T02:04:45;14.40;99.90
4695;DHT22;2361;49.540;8.390;2022-09-25T02:07:29;14.30;99.90
4695;DHT22;2361;49.540;8.390;2022-09-25T02:10:07;14.30;99.90
4695;DHT22;2361;49.540;8.390;2022-09-25T02:12:41;14.30;99.90
4695;DHT22;2361;49.540;8.390;2022-09-25T02:15:29;14.30;99.90
4695;DHT22;2361;49.540;8.390;2022-09-25T02:18:04;14.30;99.90
4695;DHT22;2361;49.540;8.390;2022-09-25T02:20:59;14.30;99.90
4695;DHT22;2361;49.540;8.390;2022-09-25T02:26:29;14.20;99.90
4695;DHT22;2361;49.540;8.390;2022-09-25T02:28:58;14.20;99.90
4695;DHT22;2361;49.540;8.390;2022-09-25T02:31:34;14.10;99.90
4695;DHT22;2361;49.540;8.390;2022-09-25T02:34:06;14.10;99.90
4695;DHT22;2361;49.540;8.390;2022-09-25T02:36:40;14.10;99.90
4695;DHT22;2361;49.540;8.390;2022-09-25T02:39:09;14.10;99.90
4695;DHT22;2361;49.540;8.390;2022-09-25T02:44:54;14.10;99.90
4695;DHT22;2361;49.540;8.390;2022-09-25T02:47:49;14.00;99.90
4695;DHT22;2361;49.540;8.390;2022-09-25T02:53:39;14.00;99.90
4695;DHT22;2361;49.540;8.390;2022-09-25T02:58:56;14.00;99.90
4695;DHT22;2361;49.540;8.390;2022-09-25T03:01:30;14.00;99.90
4695;DHT22;2361;49.540;8.390;2022-09-25T03:03:59;13.90;99.90
4695;DHT22;2361;49.540;8.390;2022-09-25T03:06:27;13.90;99.90
4695;DHT22;2361;49.540;8.390;2022-09-25T03:08:56;14.00;99.90
4695;DHT22;2361;49.540;8.390;2022-09-25T03:11:25;13.90;99.90
4695;DHT22;2361;49.540;8.390;2022-09-25T03:14:00;13.90;99.90
4695;DHT22;2361;49.540;8.390;2022-09-25T03:16:47;13.90;99.90
4695;DHT22;2361;49.540;8.390;2022-09-25T03:19:18;13.90;99.90
4695;DHT22;2361;49.540;8.390;2022-09-25T03:21:48;13.90;99.90
4695;DHT22;2361;49.540;8.390;2022-09-25T03:24:15;13.90;99.90
4695;DHT22;2361;49.540;8.390;2022-09-25T03:26:42;13.90;99.90
4695;DHT22;2361;49.540;8.390;2022-09-25T03:29:11;13.90;99.90
4695;DHT22;2361;49.540;8.390;2022-09-25T03:31:40;13.80;99.90
4695;DHT22;2361;49.540;8.390;2022-09-25T03:34:08;13.90;99.90
4695;DHT22;2361;49.540;8.390;2022-09-25T03:36:37;13.80;99.90
4695;DHT22;2361;49.540;8.390;2022-09-25T03:39:04;13.80;99.90
4695;DHT22;2361;49.540;8.390;2022-09-25T03:41:33;13.80;99.90
4695;DHT22;2361;49.540;8.390;2022-09-25T03:44:00;13.70;99.90
4695;DHT22;2361;49.540;8.390;2022-09-25T03:46:30;13.70;99.90
4695;DHT22;2361;49.540;8.390;2022-09-25T03:48:58;13.70;99.90
4695;DHT22;2361;49.540;8.390;2022-09-25T03:51:26;13.70;99.90
4695;DHT22;2361;49.540;8.390;2022-09-25T03:53:54;13.70;99.90
4695;DHT22;2361;49.540;8.390;2022-09-25T03:56:23;13.70;99.90
4695;DHT22;2361;49.540;8.390;2022-09-25T03:58:53;13.70;99.90
4695;DHT22;2361;49.540;8.390;2022-09-25T04:01:20;13.70;99.90
4695;DHT22;2361;49.540;8.390;2022-09-25T04:03:49;13.70;99.90
4695;DHT22;2361;49.540;8.390;2022-09-25T04:06:19;13.70;99.90
4695;DHT22;2361;49.540;8.390;2022-09-25T04:08:48;13.70;99.90
4695;DHT22;2361;49.540;8.390;2022-09-25T04:11:17;13.70;99.90
4695;DHT22;2361;49.540;8.390;2022-09-25T04:13:45;13.70;99.90
4695;DHT22;2361;49.540;8.390;2022-09-25T04:16:13;13.80;99.90
4695;DHT22;2361;49.540;8.390;2022-09-25T04:18:42;13.70;99.90
4695;DHT22;2361;49.540;8.390;2022-09-25T04:21:11;13.80;99.90
4695;DHT22;2361;49.540;8.390;2022-09-25T04:23:38;13.80;99.90
4695;DHT22;2361;49.540;8.390;2022-09-25T04:26:06;13.80;99.90
4695;DHT22;2361;49.540;8.390;2022-09-25T04:28:34;13.80;99.90
4695;DHT22;2361;49.540;8.390;2022-09-25T04:31:02;13.80;99.90
4695;DHT22;2361;49.540;8.390;2022-09-25T04:33:29;13.80;99.90
4695;DHT22;2361;49.540;8.390;2022-09-25T04:36:12;13.80;99.90
4695;DHT22;2361;49.540;8.390;2022-09-25T04:38:40;13.80;99.90
4695;DHT22;2361;49.540;8.390;2022-09-25T04:41:07;13.80;99.90
4695;DHT22;2361;49.540;8.390;2022-09-25T04:43:35;13.90;99.90
4695;DHT22;2361;49.540;8.390;2022-09-25T04:46:08;13.90;99.90
4695;DHT22;2361;49.540;8.390;2022-09-25T04:48:45;13.80;99.90
4695;DHT22;2361;49.540;8.390;2022-09-25T04:51:12;13.90;99.90
4695;DHT22;2361;49.540;8.390;2022-09-25T04:53:39;13.80;99.90
4695;DHT22;2361;49.540;8.390;2022-09-25T04:56:07;13.80;99.90
4695;DHT22;2361;49.540;8.390;2022-09-25T04:58:47;13.80;99.90
4695;DHT22;2361;49.540;8.390;2022-09-25T05:01:16;13.80;99.90
4695;DHT22;2361;49.540;8.390;2022-09-25T05:03:51;13.70;99.90
4695;DHT22;2361;49.540;8.390;2022-09-25T05:06:20;13.70;99.90
4695;DHT22;2361;49.540;8.390;2022-09-25T05:08:47;13.80;99.90
4695;DHT22;2361;49.540;8.390;2022-09-25T05:11:15;13.80;99.90
4695;DHT22;2361;49.540;8.390;2022-09-25T05:13:42;13.80;99.90
4695;DHT22;2361;49.540;8.390;2022-09-25T05:16:09;13.80;99.90
4695;DHT22;2361;49.540;8.390;2022-09-25T05:18:36;13.80;99.90
4695;DHT22;2361;49.540;8.390;2022-09-25T05:21:04;13.80;99.90
4695;DHT22;2361;49.540;8.390;2022-09-25T05:23:30;13.80;99.90
4695;DHT22;2361;49.540;8.390;2022-09-25T05:25:57;13.80;99.90
4695;DHT22;2361;49.540;8.390;2022-09-25T05:28:28;13.90;99.90
4695;DHT22;2361;49.540;8.390;2022-09-25T05:30:59;13.90;99.90
4695;DHT22;2361;49.540;8.390;2022-09-25T05:33:33;13.90;99.90
4695;DHT22;2361;49.540;8.390;2022-09-25T05:36:05;13.90;99.90
4695;DHT22;2361;49.540;8.390;2022-09-25T05:38:34;13.80;99.90
4695;DHT22;2361;49.540;8.390;2022-09-25T05:41:06;13.90;99.90
4695;DHT22;2361;49.540;8.390;2022-09-25T05:43:38;13.90;99.90
4695;DHT22;2361;49.540;8.390;2022-09-25T05:46:06;13.90;99.90
4695;DHT22;2361;49.540;8.390;2022-09-25T05:48:33;13.90;99.90
4695;DHT22;2361;49.540;8.390;2022-09-25T05:51:00;13.90;99.90
4695;DHT22;2361;49.540;8.390;2022-09-25T05:53:28;13.90;99.90
4695;DHT22;2361;49.540;8.390;2022-09-25T05:55:58;13.90;99.90
4695;DHT22;2361;49.540;8.390;2022-09-25T05:58:27;13.90;99.90
4695;DHT22;2361;49.540;8.390;2022-09-25T06:00:59;13.90;99.90
4695;DHT22;2361;49.540;8.390;2022-09-25T06:03:29;13.90;99.90
4695;DHT22;2361;49.540;8.390;2022-09-25T06:06:00;14.00;99.90
4695;DHT22;2361;49.540;8.390;2022-09-25T06:08:28;14.00;99.90
4695;DHT22;2361;49.540;8.390;2022-09-25T06:11:01;14.00;99.90
4695;DHT22;2361;49.540;8.390;2022-09-25T06:13:29;14.00;99.90
4695;DHT22;2361;49.540;8.390;2022-09-25T06:16:00;14.00;99.90
4695;DHT22;2361;49.540;8.390;2022-09-25T06:18:27;14.10;99.90
4695;DHT22;2361;49.540;8.390;2022-09-25T06:20:59;14.10;99.90
4695;DHT22;2361;49.540;8.390;2022-09-25T06:23:28;14.00;99.90
4695;DHT22;2361;49.540;8.390;2022-09-25T06:25:59;14.10;99.90
4695;DHT22;2361;49.540;8.390;2022-09-25T06:28:31;14.10;99.90
4695;DHT22;2361;49.540;8.390;2022-09-25T06:30:59;14.10;99.90
4695;DHT22;2361;49.540;8.390;2022-09-25T06:33:27;14.10;99.90
4695;DHT22;2361;49.540;8.390;2022-09-25T06:35:54;14.20;99.90
4695;DHT22;2361;49.540;8.390;2022-09-25T06:38:21;14.10;99.90
4695;DHT22;2361;49.540;8.390;2022-09-25T06:40:48;14.10;99.90
4695;DHT22;2361;49.540;8.390;2022-09-25T06:43:15;14.20;99.90
4695;DHT22;2361;49.540;8.390;2022-09-25T06:45:42;14.20;99.90
4695;DHT22;2361;49.540;8.390;2022-09-25T06:48:13;14.20;99.90
4695;DHT22;2361;49.540;8.390;2022-09-25T06:50:50;14.20;99.90
4695;DHT22;2361;49.540;8.390;2022-09-25T06:53:20;14.20;99.90
4695;DHT22;2361;49.540;8.390;2022-09-25T06:55:48;14.30;99.90
4695;DHT22;2361;49.540;8.390;2022-09-25T06:58:21;14.30;99.90
4695;DHT22;2361;49.540;8.390;2022-09-25T07:00:49;14.30;99.90
4695;DHT22;2361;49.540;8.390;2022-09-25T07:03:17;14.30;99.90
4695;DHT22;2361;49.540;8.390;2022-09-25T07:06:05;14.30;99.90
4695;DHT22;2361;49.540;8.390;2022-09-25T07:08:33;14.40;99.90
4695;DHT22;2361;49.540;8.390;2022-09-25T07:11:01;14.50;99.90
4695;DHT22;2361;49.540;8.390;2022-09-25T07:13:30;14.50;99.90
4695;DHT22;2361;49.540;8.390;2022-09-25T07:16:01;14.50;99.90
4695;DHT22;2361;49.540;8.390;2022-09-25T07:18:29;14.50;99.90
4695;DHT22;2361;49.540;8.390;2022-09-25T07:21:05;14.50;99.90
4695;DHT22;2361;49.540;8.390;2022-09-25T07:23:34;14.70;99.90
4695;DHT22;2361;49.540;8.390;2022-09-25T07:26:06;14.80;99.90
4695;DHT22;2361;49.540;8.390;2022-09-25T07:28:35;15.00;99.90
4695;DHT22;2361;49.540;8.390;2022-09-25T07:31:16;15.10;99.90
4695;DHT22;2361;49.540;8.390;2022-09-25T07:33:45;15.20;99.90
4695;DHT22;2361;49.540;8.390;2022-09-25T07:36:14;15.20;99.90
4695;DHT22;2361;49.540;8.390;2022-09-25T07:38:42;15.20;99.90
4695;DHT22;2361;49.540;8.390;2022-09-25T07:41:11;15.20;99.90
4695;DHT22;2361;49.540;8.390;2022-09-25T07:43:39;15.30;99.90
4695;DHT22;2361;49.540;8.390;2022-09-25T07:46:09;15.30;99.90
4695;DHT22;2361;49.540;8.390;2022-09-25T07:48:36;15.30;99.90
4695;DHT22;2361;49.540;8.390;2022-09-25T07:51:05;15.20;99.90
4695;DHT22;2361;49.540;8.390;2022-09-25T07:53:33;15.30;99.90
4695;DHT22;2361;49.540;8.390;2022-09-25T07:56:01;15.20;99.90
4695;DHT22;2361;49.540;8.390;2022-09-25T07:58:34;15.20;99.90
4695;DHT22;2361;49.540;8.390;2022-09-25T08:01:03;15.20;99.90
4695;DHT22;2361;49.540;8.390;2022-09-25T08:03:31;15.20;99.90
4695;DHT22;2361;49.540;8.390;2022-09-25T08:06:00;15.20;99.90
4695;DHT22;2361;49.540;8.390;2022-09-25T08:08:29;15.30;99.90
4695;DHT22;2361;49.540;8.390;2022-09-25T08:11:00;15.30;99.90
4695;DHT22;2361;49.540;8.390;2022-09-25T08:13:30;15.30;99.90
4695;DHT22;2361;49.540;8.390;2022-09-25T08:16:01;15.30;99.90
4695;DHT22;2361;49.540;8.390;2022-09-25T08:18:28;15.20;99.90
4695;DHT22;2361;49.540;8.390;2022-09-25T08:21:02;15.20;99.90
4695;DHT22;2361;49.540;8.390;2022-09-25T08:23:30;15.20;99.90
4695;DHT22;2361;49.540;8.390;2022-09-25T08:25:58;15.20;99.90
4695;DHT22;2361;49.540;8.390;2022-09-25T08:28:25;15.10;99.90
4695;DHT22;2361;49.540;8.390;2022-09-25T08:30:52;15.10;99.90
4695;DHT22;2361;49.540;8.390;2022-09-25T08:33:19;15.00;99.90
4695;DHT22;2361;49.540;8.390;2022-09-25T08:36:04;15.00;99.90
4695;DHT22;2361;49.540;8.390;2022-09-25T08:38:31;15.00;99.90
4695;DHT22;2361;49.540;8.390;2022-09-25T08:41:09;15.00;99.90
4695;DHT22;2361;49.540;8.390;2022-09-25T08:46:42;15.30;99.90
4695;DHT22;2361;49.540;8.390;2022-09-25T08:49:35;15.40;99.90
4695;DHT22;2361;49.540;8.390;2022-09-25T08:52:07;15.50;99.90
4695;DHT22;2361;49.540;8.390;2022-09-25T08:54:38;15.60;99.90
4695;DHT22;2361;49.540;8.390;2022-09-25T08:57:31;15.70;99.90
4695;DHT22;2361;49.540;8.390;2022-09-25T09:00:09;15.70;99.90
4695;DHT22;2361;49.540;8.390;2022-09-25T09:02:55;15.70;99.90
4695;DHT22;2361;49.540;8.390;2022-09-25T09:05:29;15.80;99.90
4695;DHT22;2361;49.540;8.390;2022-09-25T09:08:06;15.80;99.90
4695;DHT22;2361;49.540;8.390;2022-09-25T09:10:44;15.70;99.90
4695;DHT22;2361;49.540;8.390;2022-09-25T09:13:25;15.70;99.90
4695;DHT22;2361;49.540;8.390;2022-09-25T09:19:02;15.60;99.90
4695;DHT22;2361;49.540;8.390;2022-09-25T09:21:36;15.50;99.90
4695;DHT22;2361;49.540;8.390;2022-09-25T09:24:23;15.40;99.90
4695;DHT22;2361;49.540;8.390;2022-09-25T09:30:34;15.30;99.90
4695;DHT22;2361;49.540;8.390;2022-09-25T09:36:15;15.30;99.90
4695;DHT22;2361;49.540;8.390;2022-09-25T09:39:22;15.30;99.90
4695;DHT22;2361;49.540;8.390;2022-09-25T09:42:15;15.30;99.90
4695;DHT22;2361;49.540;8.390;2022-09-25T09:45:01;15.40;99.90
4695;DHT22;2361;49.540;8.390;2022-09-25T09:47:53;15.40;99.90
4695;DHT22;2361;49.540;8.390;2022-09-25T09:51:08;15.50;99.90
4695;DHT22;2361;49.540;8.390;2022-09-25T09:53:45;15.80;99.90
4695;DHT22;2361;49.540;8.390;2022-09-25T09:56:21;15.90;99.90
4695;DHT22;2361;49.540;8.390;2022-09-25T09:59:08;16.00;99.90
4695;DHT22;2361;49.540;8.390;2022-09-25T10:01:41;16.00;99.90
4695;DHT22;2361;49.540;8.390;2022-09-25T10:04:15;16.20;99.90
4695;DHT22;2361;49.540;8.390;2022-09-25T10:06:54;16.40;99.90
4695;DHT22;2361;49.540;8.390;2022-09-25T10:09:23;16.60;99.90
4695;DHT22;2361;49.540;8.390;2022-09-25T10:12:04;16.80;99.90
4695;DHT22;2361;49.540;8.390;2022-09-25T10:14:38;17.10;99.90
4695;DHT22;2361;49.540;8.390;2022-09-25T10:17:09;17.90;99.90
4695;DHT22;2361;49.540;8.390;2022-09-25T10:22:28;18.00;99.90
4695;DHT22;2361;49.540;8.390;2022-09-25T10:25:01;17.90;99.90
4695;DHT22;2361;49.540;8.390;2022-09-25T10:27:32;17.90;99.90
4695;DHT22;2361;49.540;8.390;2022-09-25T10:33:00;18.10;99.90
4695;DHT22;2361;49.540;8.390;2022-09-25T10:38:15;17.80;99.90
4695;DHT22;2361;49.540;8.390;2022-09-25T10:41:05;17.50;99.90
4695;DHT22;2361;49.540;8.390;2022-09-25T10:43:33;17.50;99.90
4695;DHT22;2361;49.540;8.390;2022-09-25T10:46:14;17.30;99.90
4695;DHT22;2361;49.540;8.390;2022-09-25T10:48:41;17.20;99.90
4695;DHT22;2361;49.540;8.390;2022-09-25T10:51:28;17.10;99.90
4695;DHT22;2361;49.540;8.390;2022-09-25T10:54:11;17.20;99.90
4695;DHT22;2361;49.540;8.390;2022-09-25T10:56:41;17.30;99.90
4695;DHT22;2361;49.540;8.390;2022-09-25T10:59:18;17.50;99.90
4695;DHT22;2361;49.540;8.390;2022-09-25T11:01:47;17.90;99.90
4695;DHT22;2361;49.540;8.390;2022-09-25T11:04:23;18.20;99.90
4695;DHT22;2361;49.540;8.390;2022-09-25T11:06:59;18.70;99.90
4695;DHT22;2361;49.540;8.390;2022-09-25T11:09:29;19.00;99.90
4695;DHT22;2361;49.540;8.390;2022-09-25T11:14:45;19.40;99.90
4695;DHT22;2361;49.540;8.390;2022-09-25T11:17:38;19.60;99.90
4695;DHT22;2361;49.540;8.390;2022-09-25T11:25:45;19.40;99.90
4695;DHT22;2361;49.540;8.390;2022-09-25T11:31:36;19.00;99.90
4695;DHT22;2361;49.540;8.390;2022-09-25T11:36:57;18.70;99.90
4695;DHT22;2361;49.540;8.390;2022-09-25T11:39:37;18.60;99.90
4695;DHT22;2361;49.540;8.390;2022-09-25T11:42:47;18.20;99.90
4695;DHT22;2361;49.540;8.390;2022-09-25T11:51:30;17.40;99.90
4695;DHT22;2361;49.540;8.390;2022-09-25T12:03:17;17.20;99.90
4695;DHT22;2361;49.540;8.390;2022-09-25T12:15:04;17.50;99.90
4695;DHT22;2361;49.540;8.390;2022-09-25T12:18:06;17.40;99.90
4695;DHT22;2361;49.540;8.390;2022-09-25T12:24:05;17.20;99.90
4695;DHT22;2361;49.540;8.390;2022-09-25T12:27:08;17.10;99.90
4695;DHT22;2361;49.540;8.390;2022-09-25T12:35:57;17.10;99.90
4695;DHT22;2361;49.540;8.390;2022-09-25T12:46:46;17.00;99.90
4695;DHT22;2361;49.540;8.390;2022-09-25T12:52:14;16.90;99.90
4695;DHT22;2361;49.540;8.390;2022-09-25T12:57:51;17.00;99.90
4695;DHT22;2361;49.540;8.390;2022-09-25T13:00:23;17.00;99.90
4695;DHT22;2361;49.540;8.390;2022-09-25T13:15:18;16.60;99.90
4695;DHT22;2361;49.540;8.390;2022-09-25T13:17:49;16.70;99.90
4695;DHT22;2361;49.540;8.390;2022-09-25T13:25:50;16.70;99.90
4695;DHT22;2361;49.540;8.390;2022-09-25T13:28:32;16.80;99.90
4695;DHT22;2361;49.540;8.390;2022-09-25T13:31:10;16.70;99.90
4695;DHT22;2361;49.540;8.390;2022-09-25T13:33:51;16.70;99.90
4695;DHT22;2361;49.540;8.390;2022-09-25T13:38:57;16.50;99.90
4695;DHT22;2361;49.540;8.390;2022-09-25T13:42:27;16.50;99.90
4695;DHT22;2361;49.540;8.390;2022-09-25T13:45:11;16.50;99.90
4695;DHT22;2361;49.540;8.390;2022-09-25T13:51:25;16.20;99.90
4695;DHT22;2361;49.540;8.390;2022-09-25T13:54:02;16.10;99.90
4695;DHT22;2361;49.540;8.390;2022-09-25T14:01:56;16.00;99.90
4695;DHT22;2361;49.540;8.390;2022-09-25T14:04:36;16.10;99.90
4695;DHT22;2361;49.540;8.390;2022-09-25T14:07:25;16.10;99.90
4695;DHT22;2361;49.540;8.390;2022-09-25T14:09:55;16.00;99.90
4695;DHT22;2361;49.540;8.390;2022-09-25T14:12:36;16.00;99.90
4695;DHT22;2361;49.540;8.390;2022-09-25T14:15:23;16.00;99.90
4695;DHT22;2361;49.540;8.390;2022-09-25T14:17:55;15.80;99.90
4695;DHT22;2361;49.540;8.390;2022-09-25T14:20:32;15.80;99.90
4695;DHT22;2361;49.540;8.390;2022-09-25T14:23:05;15.80;99.90
4695;DHT22;2361;49.540;8.390;2022-09-25T14:25:40;16.00;99.90
4695;DHT22;2361;49.540;8.390;2022-09-25T14:28:26;16.00;99.90
4695;DHT22;2361;49.540;8.390;2022-09-25T14:40:21;16.20;99.90
4695;DHT22;2361;49.540;8.390;2022-09-25T14:43:24;16.10;99.90
4695;DHT22;2361;49.540;8.390;2022-09-25T14:46:17;16.10;99.90
4695;DHT22;2361;49.540;8.390;2022-09-25T14:48:58;16.20;99.90
4695;DHT22;2361;49.540;8.390;2022-09-25T14:51:40;16.40;99.90
4695;DHT22;2361;49.540;8.390;2022-09-25T14:54:12;16.30;99.90
4695;DHT22;2361;49.540;8.390;2022-09-25T14:56:42;16.30;99.90
4695;DHT22;2361;49.540;8.390;2022-09-25T15:02:19;16.20;99.90
4695;DHT22;2361;49.540;8.390;2022-09-25T15:04:49;16.10;99.90
4695;DHT22;2361;49.540;8.390;2022-09-25T15:07:25;16.00;99.90
4695;DHT22;2361;49.540;8.390;2022-09-25T15:09:53;15.90;99.90
4695;DHT22;2361;49.540;8.390;2022-09-25T15:12:32;15.90;99.90
4695;DHT22;2361;49.540;8.390;2022-09-25T15:15:13;15.70;99.90
4695;DHT22;2361;49.540;8.390;2022-09-25T15:17:48;15.70;99.90
4695;DHT22;2361;49.540;8.390;2022-09-25T15:20:22;15.80;99.90
4695;DHT22;2361;49.540;8.390;2022-09-25T15:23:01;15.70;99.90
4695;DHT22;2361;49.540;8.390;2022-09-25T15:28:06;15.60;99.90
4695;DHT22;2361;49.540;8.390;2022-09-25T15:30:36;15.60;99.90
4695;DHT22;2361;49.540;8.390;2022-09-25T15:33:05;15.60;99.90
4695;DHT22;2361;49.540;8.390;2022-09-25T15:35:32;15.60;99.90
4695;DHT22;2361;49.540;8.390;2022-09-25T15:38:09;15.60;99.90
4695;DHT22;2361;49.540;8.390;2022-09-25T15:40:38;15.60;99.90
4695;DHT22;2361;49.540;8.390;2022-09-25T15:43:12;15.60;99.90
4695;DHT22;2361;49.540;8.390;2022-09-25T15:48:37;15.50;99.90
4695;DHT22;2361;49.540;8.390;2022-09-25T15:51:18;15.50;99.90
4695;DHT22;2361;49.540;8.390;2022-09-25T15:54:23;15.50;99.90
4695;DHT22;2361;49.540;8.390;2022-09-25T15:56:58;15.50;99.90
4695;DHT22;2361;49.540;8.390;2022-09-25T15:59:37;15.40;99.90
4695;DHT22;2361;49.540;8.390;2022-09-25T16:02:26;15.40;99.90
4695;DHT22;2361;49.540;8.390;2022-09-25T16:05:23;15.40;99.90
4695;DHT22;2361;49.540;8.390;2022-09-25T16:08:14;15.30;99.90
4695;DHT22;2361;49.540;8.390;2022-09-25T16:14:11;15.30;99.90
4695;DHT22;2361;49.540;8.390;2022-09-25T16:16:47;15.30;99.90
4695;DHT22;2361;49.540;8.390;2022-09-25T16:21:52;15.30;99.90
4695;DHT22;2361;49.540;8.390;2022-09-25T16:24:24;15.30;99.90
4695;DHT22;2361;49.540;8.390;2022-09-25T16:27:01;15.30;99.90
4695;DHT22;2361;49.540;8.390;2022-09-25T16:29:32;15.30;99.90
4695;DHT22;2361;49.540;8.390;2022-09-25T16:32:05;15.20;99.90
4695;DHT22;2361;49.540;8.390;2022-09-25T16:34:38;15.20;99.90
4695;DHT22;2361;49.540;8.390;2022-09-25T16:37:18;15.10;99.90
4695;DHT22;2361;49.540;8.390;2022-09-25T16:42:52;15.10;99.90
4695;DHT22;2361;49.540;8.390;2022-09-25T16:47:56;15.10;99.90
4695;DHT22;2361;49.540;8.390;2022-09-25T16:50:28;15.10;99.90
4695;DHT22;2361;49.540;8.390;2022-09-25T16:52:59;15.10;99.90
4695;DHT22;2361;49.540;8.390;2022-09-25T16:55:28;15.10;99.90
4695;DHT22;2361;49.540;8.390;2022-09-25T16:57:56;15.10;99.90
4695;DHT22;2361;49.540;8.390;2022-09-25T17:00:26;15.00;99.90
4695;DHT22;2361;49.540;8.390;2022-09-25T17:02:55;15.00;99.90
4695;DHT22;2361;49.540;8.390;2022-09-25T17:05:23;15.00;99.90
4695;DHT22;2361;49.540;8.390;2022-09-25T17:08:14;15.00;99.90
4695;DHT22;2361;49.540;8.390;2022-09-25T17:10:43;15.00;99.90
4695;DHT22;2361;49.540;8.390;2022-09-25T17:13:13;15.00;99.90
4695;DHT22;2361;49.540;8.390;2022-09-25T17:15:41;14.90;99.90
4695;DHT22;2361;49.540;8.390;2022-09-25T17:18:17;15.00;99.90
4695;DHT22;2361;49.540;8.390;2022-09-25T17:20:45;15.00;99.90
4695;DHT22;2361;49.540;8.390;2022-09-25T17:23:18;15.00;99.90
4695;DHT22;2361;49.540;8.390;2022-09-25T17:25:54;15.00;99.90
4695;DHT22;2361;49.540;8.390;2022-09-25T17:28:27;15.00;99.90
4695;DHT22;2361;49.540;8.390;2022-09-25T17:30:55;15.00;99.90
4695;DHT22;2361;49.540;8.390;2022-09-25T17:33:22;15.00;99.90
4695;DHT22;2361;49.540;8.390;2022-09-25T17:36:02;15.00;99.90
4695;DHT22;2361;49.540;8.390;2022-09-25T17:38:31;15.00;99.90
4695;DHT22;2361;49.540;8.390;2022-09-25T17:41:01;15.00;99.90
4695;DHT22;2361;49.540;8.390;2022-09-25T17:43:31;15.00;99.90
4695;DHT22;2361;49.540;8.390;2022-09-25T17:45:59;14.90;99.90
4695;DHT22;2361;49.540;8.390;2022-09-25T17:48:29;14.90;99.90
4695;DHT22;2361;49.540;8.390;2022-09-25T17:51:19;14.80;99.90
4695;DHT22;2361;49.540;8.390;2022-09-25T17:53:46;14.80;99.90
4695;DHT22;2361;49.540;8.390;2022-09-25T17:56:18;14.80;99.90
4695;DHT22;2361;49.540;8.390;2022-09-25T17:58:45;14.80;99.90
4695;DHT22;2361;49.540;8.390;2022-09-25T18:01:15;14.80;99.90
4695;DHT22;2361;49.540;8.390;2022-09-25T18:03:56;14.80;99.90
4695;DHT22;2361;49.540;8.390;2022-09-25T18:06:25;14.80;99.90
4695;DHT22;2361;49.540;8.390;2022-09-25T18:08:53;14.80;99.90
4695;DHT22;2361;49.540;8.390;2022-09-25T18:11:23;14.80;99.90
4695;DHT22;2361;49.540;8.390;2022-09-25T18:13:52;14.80;99.90
4695;DHT22;2361;49.540;8.390;2022-09-25T18:16:29;14.80;99.90
4695;DHT22;2361;49.540;8.390;2022-09-25T18:18:58;14.80;99.90
4695;DHT22;2361;49.540;8.390;2022-09-25T18:21:44;14.70;99.90
4695;DHT22;2361;49.540;8.390;2022-09-25T18:24:29;14.60;99.90
4695;DHT22;2361;49.540;8.390;2022-09-25T18:26:56;14.60;99.90
4695;DHT22;2361;49.540;8.390;2022-09-25T18:29:24;14.50;99.90
4695;DHT22;2361;49.540;8.390;2022-09-25T18:31:51;14.50;99.90
4695;DHT22;2361;49.540;8.390;2022-09-25T18:34:18;14.50;99.90
4695;DHT22;2361;49.540;8.390;2022-09-25T18:36:47;14.50;99.90
4695;DHT22;2361;49.540;8.390;2022-09-25T18:39:15;14.50;99.90
4695;DHT22;2361;49.540;8.390;2022-09-25T18:41:46;14.50;99.90
4695;DHT22;2361;49.540;8.390;2022-09-25T18:44:14;14.60;99.90
4695;DHT22;2361;49.540;8.390;2022-09-25T18:46:43;14.50;99.90
4695;DHT22;2361;49.540;8.390;2022-09-25T18:49:10;14.50;99.90
4695;DHT22;2361;49.540;8.390;2022-09-25T18:51:37;14.50;99.90
4695;DHT22;2361;49.540;8.390;2022-09-25T18:54:04;14.50;99.90
4695;DHT22;2361;49.540;8.390;2022-09-25T18:56:31;14.50;99.90
4695;DHT22;2361;49.540;8.390;2022-09-25T18:59:02;14.50;99.90
4695;DHT22;2361;49.540;8.390;2022-09-25T19:01:31;14.50;99.90
4695;DHT22;2361;49.540;8.390;2022-09-25T19:04:02;14.50;99.90
4695;DHT22;2361;49.540;8.390;2022-09-25T19:06:29;14.50;99.90
4695;DHT22;2361;49.540;8.390;2022-09-25T19:08:56;14.50;99.90
4695;DHT22;2361;49.540;8.390;2022-09-25T19:11:25;14.50;99.90
4695;DHT22;2361;49.540;8.390;2022-09-25T19:13:52;14.50;99.90
4695;DHT22;2361;49.540;8.390;2022-09-25T19:16:20;14.50;99.90
4695;DHT22;2361;49.540;8.390;2022-09-25T19:18:47;14.40;99.90
4695;DHT22;2361;49.540;8.390;2022-09-25T19:21:16;14.40;99.90
4695;DHT22;2361;49.540;8.390;2022-09-25T19:23:48;14.50;99.90
4695;DHT22;2361;49.540;8.390;2022-09-25T19:26:20;14.40;99.90
4695;DHT22;2361;49.540;8.390;2022-09-25T19:28:48;14.40;99.90
4695;DHT22;2361;49.540;8.390;2022-09-25T19:31:18;14.40;99.90
4695;DHT22;2361;49.540;8.390;2022-09-25T19:33:53;14.40;99.90
4695;DHT22;2361;49.540;8.390;2022-09-25T19:36:27;14.40;99.90
4695;DHT22;2361;49.540;8.390;2022-09-25T19:38:59;14.40;99.90